sensor_id;sensor_type;location;lat;lon;timestamp;P1;durP1;ratioP1;P2;durP2;ratioP2
18685;SDS011;9473;52.342;13.110;2023-06-24T00:02:11;29.02;;;16.40;;
18685;SDS011;9473;52.342;13.110;2023-06-24T00:04:38;24.52;;;13.98;;
18685;SDS011;9473;52.342;13.110;2023-06-24T00:07:05;24.00;;;14.98;;
18685;SDS011;9473;52.342;13.110;2023-06-24T00:09:34;32.67;;;15.90;;
18685;SDS011;9473;52.342;13.110;2023-06-24T00:12:01;26.30;;;15.60;;
18685;SDS011;9473;52.342;13.110;2023-06-24T00:14:28;28.15;;;16.13;;
18685;SDS011;9473;52.342;13.110;2023-06-24T00:16:55;33.40;;;16.70;;
18685;SDS011;9473;52.342;13.110;2023-06-24T00:19:23;30.67;;;16.73;;
18685;SDS011;9473;52.342;13.110;2023-06-24T00:21:50;27.85;;;16.08;;
18685;SDS011;9473;52.342;13.110;2023-06-24T00:24:17;23.17;;;13.68;;
18685;SDS011;9473;52.342;13.110;2023-06-24T00:26:46;28.13;;;16.00;;
18685;SDS011;9473;52.342;13.110;2023-06-24T00:29:13;25.20;;;16.00;;
18685;SDS011;9473;52.342;13.110;2023-06-24T00:31:41;31.05;;;17.48;;
18685;SDS011;9473;52.342;13.110;2023-06-24T00:34:07;28.48;;;16.15;;
18685;SDS011;9473;52.342;13.110;2023-06-24T00:36:34;30.38;;;16.67;;
18685;SDS011;9473;52.342;13.110;2023-06-24T00:39:02;29.08;;;16.02;;
18685;SDS011;9473;52.342;13.110;2023-06-24T00:41:30;30.00;;;16.33;;
18685;SDS011;9473;52.342;13.110;2023-06-24T00:43:58;29.95;;;16.00;;
18685;SDS011;9473;52.342;13.110;2023-06-24T00:46:25;21.63;;;13.80;;
18685;SDS011;9473;52.342;13.110;2023-06-24T00:48:52;28.13;;;15.30;;
18685;SDS011;9473;52.342;13.110;2023-06-24T00:51:19;29.15;;;16.10;;
18685;SDS011;9473;52.342;13.110;2023-06-24T00:53:51;25.58;;;15.95;;
18685;SDS011;9473;52.342;13.110;2023-06-24T00:56:18;22.27;;;14.48;;
18685;SDS011;9473;52.342;13.110;2023-06-24T00:58:47;27.70;;;15.25;;
18685;SDS011;9473;52.342;13.110;2023-06-24T01:01:16;23.10;;;14.68;;
18685;SDS011;9473;52.342;13.110;2023-06-24T01:03:44;24.42;;;14.70;;
18685;SDS011;9473;52.342;13.110;2023-06-24T01:06:11;27.55;;;13.82;;
18685;SDS011;9473;52.342;13.110;2023-06-24T01:08:38;20.58;;;12.85;;
18685;SDS011;9473;52.342;13.110;2023-06-24T01:11:05;22.65;;;13.88;;
18685;SDS011;9473;52.342;13.110;2023-06-24T01:13:32;20.52;;;13.48;;
18685;SDS011;9473;52.342;13.110;2023-06-24T01:16:00;25.80;;;13.35;;
18685;SDS011;9473;52.342;13.110;2023-06-24T01:18:32;16.52;;;10.82;;
18685;SDS011;9473;52.342;13.110;2023-06-24T01:21:03;19.23;;;11.68;;
18685;SDS011;9473;52.342;13.110;2023-06-24T01:23:55;19.95;;;13.65;;
18685;SDS011;9473;52.342;13.110;2023-06-24T01:26:33;22.63;;;14.18;;
18685;SDS011;9473;52.342;13.110;2023-06-24T01:29:09;23.95;;;13.60;;
18685;SDS011;9473;52.342;13.110;2023-06-24T01:31:43;21.80;;;12.98;;
18685;SDS011;9473;52.342;13.110;2023-06-24T01:34:15;17.50;;;12.20;;
18685;SDS011;9473;52.342;13.110;2023-06-24T01:36:45;23.90;;;13.75;;
18685;SDS011;9473;52.342;13.110;2023-06-24T01:39:13;20.67;;;11.65;;
18685;SDS011;9473;52.342;13.110;2023-06-24T01:41:42;18.88;;;12.27;;
18685;SDS011;9473;52.342;13.110;2023-06-24T01:44:10;20.25;;;12.63;;
18685;SDS011;9473;52.342;13.110;2023-06-24T01:46:39;20.42;;;13.55;;
18685;SDS011;9473;52.342;13.110;2023-06-24T01:49:09;22.27;;;13.85;;
18685;SDS011;9473;52.342;13.110;2023-06-24T01:51:38;21.08;;;13.25;;
18685;SDS011;9473;52.342;13.110;2023-06-24T01:54:07;25.15;;;14.40;;
18685;SDS011;9473;52.342;13.110;2023-06-24T01:56:37;22.50;;;14.32;;
18685;SDS011;9473;52.342;13.110;2023-06-24T01:59:05;22.65;;;13.85;;
18685;SDS011;9473;52.342;13.110;2023-06-24T02:01:32;21.05;;;13.38;;
18685;SDS011;9473;52.342;13.110;2023-06-24T02:04:00;23.20;;;13.38;;
18685;SDS011;9473;52.342;13.110;2023-06-24T02:06:29;24.23;;;13.15;;
18685;SDS011;9473;52.342;13.110;2023-06-24T02:08:56;21.70;;;12.18;;
18685;SDS011;9473;52.342;13.110;2023-06-24T02:11:24;21.33;;;11.65;;
18685;SDS011;9473;52.342;13.110;2023-06-24T02:13:53;19.25;;;11.95;;
18685;SDS011;9473;52.342;13.110;2023-06-24T02:16:21;21.23;;;12.35;;
18685;SDS011;9473;52.342;13.110;2023-06-24T02:18:48;19.25;;;11.50;;
18685;SDS011;9473;52.342;13.110;2023-06-24T02:21:16;18.88;;;12.27;;
18685;SDS011;9473;52.342;13.110;2023-06-24T02:23:46;23.35;;;11.93;;
18685;SDS011;9473;52.342;13.110;2023-06-24T02:26:13;18.40;;;11.32;;
18685;SDS011;9473;52.342;13.110;2023-06-24T02:28:41;21.67;;;11.60;;
18685;SDS011;9473;52.342;13.110;2023-06-24T02:31:09;17.50;;;11.30;;
18685;SDS011;9473;52.342;13.110;2023-06-24T02:33:37;18.83;;;12.13;;
18685;SDS011;9473;52.342;13.110;2023-06-24T02:36:04;18.92;;;10.30;;
18685;SDS011;9473;52.342;13.110;2023-06-24T02:38:31;18.20;;;11.43;;
18685;SDS011;9473;52.342;13.110;2023-06-24T02:40:59;21.10;;;11.20;;
18685;SDS011;9473;52.342;13.110;2023-06-24T02:43:29;19.52;;;11.02;;
18685;SDS011;9473;52.342;13.110;2023-06-24T02:45:56;22.85;;;11.07;;
18685;SDS011;9473;52.342;13.110;2023-06-24T02:48:24;18.50;;;10.55;;
18685;SDS011;9473;52.342;13.110;2023-06-24T02:50:51;18.38;;;10.68;;
18685;SDS011;9473;52.342;13.110;2023-06-24T02:53:18;17.60;;;10.63;;
18685;SDS011;9473;52.342;13.110;2023-06-24T02:55:45;17.00;;;11.02;;
18685;SDS011;9473;52.342;13.110;2023-06-24T02:58:14;13.88;;;9.52;;
18685;SDS011;9473;52.342;13.110;2023-06-24T03:00:41;16.38;;;10.93;;
18685;SDS011;9473;52.342;13.110;2023-06-24T03:03:08;17.65;;;10.10;;
18685;SDS011;9473;52.342;13.110;2023-06-24T03:05:35;16.35;;;10.45;;
18685;SDS011;9473;52.342;13.110;2023-06-24T03:08:02;16.08;;;10.80;;
18685;SDS011;9473;52.342;13.110;2023-06-24T03:10:30;16.75;;;10.25;;
18685;SDS011;9473;52.342;13.110;2023-06-24T03:12:57;19.30;;;10.40;;
18685;SDS011;9473;52.342;13.110;2023-06-24T03:15:25;20.65;;;10.50;;
18685;SDS011;9473;52.342;13.110;2023-06-24T03:17:53;21.15;;;10.30;;
18685;SDS011;9473;52.342;13.110;2023-06-24T03:20:20;17.95;;;11.05;;
18685;SDS011;9473;52.342;13.110;2023-06-24T03:22:48;16.67;;;9.65;;
18685;SDS011;9473;52.342;13.110;2023-06-24T03:25:17;18.13;;;10.10;;
18685;SDS011;9473;52.342;13.110;2023-06-24T03:27:44;19.35;;;9.80;;
18685;SDS011;9473;52.342;13.110;2023-06-24T03:30:11;19.15;;;10.68;;
18685;SDS011;9473;52.342;13.110;2023-06-24T03:32:40;18.38;;;10.82;;
18685;SDS011;9473;52.342;13.110;2023-06-24T03:35:11;22.63;;;10.20;;
18685;SDS011;9473;52.342;13.110;2023-06-24T03:37:38;16.70;;;9.77;;
18685;SDS011;9473;52.342;13.110;2023-06-24T03:40:06;18.95;;;10.68;;
18685;SDS011;9473;52.342;13.110;2023-06-24T03:42:33;22.27;;;10.65;;
18685;SDS011;9473;52.342;13.110;2023-06-24T03:45:01;20.55;;;10.00;;
18685;SDS011;9473;52.342;13.110;2023-06-24T03:47:28;21.23;;;10.40;;
18685;SDS011;9473;52.342;13.110;2023-06-24T03:49:56;15.88;;;10.02;;
18685;SDS011;9473;52.342;13.110;2023-06-24T03:52:23;15.35;;;8.73;;
18685;SDS011;9473;52.342;13.110;2023-06-24T03:54:50;17.77;;;9.82;;
18685;SDS011;9473;52.342;13.110;2023-06-24T03:57:18;17.25;;;10.13;;
18685;SDS011;9473;52.342;13.110;2023-06-24T03:59:45;21.05;;;11.10;;
18685;SDS011;9473;52.342;13.110;2023-06-24T04:02:12;23.20;;;10.70;;
18685;SDS011;9473;52.342;13.110;2023-06-24T04:04:40;17.30;;;10.70;;
18685;SDS011;9473;52.342;13.110;2023-06-24T04:07:08;17.48;;;10.20;;
18685;SDS011;9473;52.342;13.110;2023-06-24T04:09:35;19.98;;;10.45;;
18685;SDS011;9473;52.342;13.110;2023-06-24T04:12:03;20.35;;;11.13;;
18685;SDS011;9473;52.342;13.110;2023-06-24T04:14:30;15.85;;;10.57;;
18685;SDS011;9473;52.342;13.110;2023-06-24T04:16:57;18.75;;;10.07;;
18685;SDS011;9473;52.342;13.110;2023-06-24T04:19:24;19.55;;;10.52;;
18685;SDS011;9473;52.342;13.110;2023-06-24T04:21:51;22.50;;;10.90;;
18685;SDS011;9473;52.342;13.110;2023-06-24T04:24:19;19.65;;;11.38;;
18685;SDS011;9473;52.342;13.110;2023-06-24T04:26:46;21.30;;;11.52;;
18685;SDS011;9473;52.342;13.110;2023-06-24T04:29:13;22.05;;;11.48;;
18685;SDS011;9473;52.342;13.110;2023-06-24T04:31:40;19.05;;;10.88;;
18685;SDS011;9473;52.342;13.110;2023-06-24T04:34:07;19.45;;;11.80;;
18685;SDS011;9473;52.342;13.110;2023-06-24T04:36:33;20.98;;;11.48;;
18685;SDS011;9473;52.342;13.110;2023-06-24T04:39:01;21.92;;;10.95;;
18685;SDS011;9473;52.342;13.110;2023-06-24T04:41:29;22.40;;;11.27;;
18685;SDS011;9473;52.342;13.110;2023-06-24T04:43:57;18.45;;;10.82;;
18685;SDS011;9473;52.342;13.110;2023-06-24T04:46:24;21.85;;;10.63;;
18685;SDS011;9473;52.342;13.110;2023-06-24T04:48:51;17.08;;;10.38;;
18685;SDS011;9473;52.342;13.110;2023-06-24T04:51:18;20.50;;;11.73;;
18685;SDS011;9473;52.342;13.110;2023-06-24T04:53:45;20.77;;;11.73;;
18685;SDS011;9473;52.342;13.110;2023-06-24T04:56:11;22.15;;;11.52;;
18685;SDS011;9473;52.342;13.110;2023-06-24T04:58:40;21.55;;;11.85;;
18685;SDS011;9473;52.342;13.110;2023-06-24T05:01:07;20.13;;;11.90;;
18685;SDS011;9473;52.342;13.110;2023-06-24T05:03:34;22.50;;;12.02;;
18685;SDS011;9473;52.342;13.110;2023-06-24T05:06:00;21.80;;;12.10;;
18685;SDS011;9473;52.342;13.110;2023-06-24T05:08:27;21.15;;;12.20;;
18685;SDS011;9473;52.342;13.110;2023-06-24T05:10:54;20.98;;;11.63;;
18685;SDS011;9473;52.342;13.110;2023-06-24T05:13:21;18.40;;;11.05;;
18685;SDS011;9473;52.342;13.110;2023-06-24T05:15:49;19.90;;;11.52;;
18685;SDS011;9473;52.342;13.110;2023-06-24T05:18:16;21.27;;;11.52;;
18685;SDS011;9473;52.342;13.110;2023-06-24T05:20:43;20.23;;;11.35;;
18685;SDS011;9473;52.342;13.110;2023-06-24T05:23:10;19.08;;;11.25;;
18685;SDS011;9473;52.342;13.110;2023-06-24T05:25:37;21.70;;;11.55;;
18685;SDS011;9473;52.342;13.110;2023-06-24T05:28:04;20.20;;;11.07;;
18685;SDS011;9473;52.342;13.110;2023-06-24T05:30:31;21.52;;;11.68;;
18685;SDS011;9473;52.342;13.110;2023-06-24T05:32:59;20.92;;;11.45;;
18685;SDS011;9473;52.342;13.110;2023-06-24T05:35:26;19.48;;;10.90;;
18685;SDS011;9473;52.342;13.110;2023-06-24T05:37:53;21.10;;;11.18;;
18685;SDS011;9473;52.342;13.110;2023-06-24T05:40:20;20.13;;;11.98;;
18685;SDS011;9473;52.342;13.110;2023-06-24T05:42:47;18.10;;;10.93;;
18685;SDS011;9473;52.342;13.110;2023-06-24T05:45:14;20.45;;;10.50;;
18685;SDS011;9473;52.342;13.110;2023-06-24T05:47:41;16.55;;;10.38;;
18685;SDS011;9473;52.342;13.110;2023-06-24T05:50:09;16.05;;;10.18;;
18685;SDS011;9473;52.342;13.110;2023-06-24T05:52:36;21.65;;;10.63;;
18685;SDS011;9473;52.342;13.110;2023-06-24T05:55:04;15.35;;;9.70;;
18685;SDS011;9473;52.342;13.110;2023-06-24T05:57:31;18.50;;;10.88;;
18685;SDS011;9473;52.342;13.110;2023-06-24T05:59:58;20.65;;;10.52;;
18685;SDS011;9473;52.342;13.110;2023-06-24T06:02:24;19.10;;;11.00;;
18685;SDS011;9473;52.342;13.110;2023-06-24T06:04:51;16.52;;;9.68;;
18685;SDS011;9473;52.342;13.110;2023-06-24T06:07:20;17.70;;;9.50;;
18685;SDS011;9473;52.342;13.110;2023-06-24T06:09:47;17.30;;;10.48;;
18685;SDS011;9473;52.342;13.110;2023-06-24T06:12:14;14.93;;;8.80;;
18685;SDS011;9473;52.342;13.110;2023-06-24T06:14:40;20.13;;;9.50;;
18685;SDS011;9473;52.342;13.110;2023-06-24T06:17:07;18.92;;;9.40;;
18685;SDS011;9473;52.342;13.110;2023-06-24T06:19:34;17.90;;;9.98;;
18685;SDS011;9473;52.342;13.110;2023-06-24T06:22:03;15.65;;;9.18;;
18685;SDS011;9473;52.342;13.110;2023-06-24T06:24:31;16.55;;;9.23;;
18685;SDS011;9473;52.342;13.110;2023-06-24T06:26:58;15.43;;;8.70;;
18685;SDS011;9473;52.342;13.110;2023-06-24T06:29:25;17.70;;;9.45;;
18685;SDS011;9473;52.342;13.110;2023-06-24T06:31:52;17.17;;;9.05;;
18685;SDS011;9473;52.342;13.110;2023-06-24T06:34:20;14.27;;;9.30;;
18685;SDS011;9473;52.342;13.110;2023-06-24T06:36:47;19.63;;;8.95;;
18685;SDS011;9473;52.342;13.110;2023-06-24T06:39:14;15.75;;;9.35;;
18685;SDS011;9473;52.342;13.110;2023-06-24T06:41:42;15.85;;;9.38;;
18685;SDS011;9473;52.342;13.110;2023-06-24T06:44:09;13.65;;;7.97;;
18685;SDS011;9473;52.342;13.110;2023-06-24T06:46:36;17.02;;;9.40;;
18685;SDS011;9473;52.342;13.110;2023-06-24T06:49:03;14.70;;;9.35;;
18685;SDS011;9473;52.342;13.110;2023-06-24T06:51:30;17.63;;;8.23;;
18685;SDS011;9473;52.342;13.110;2023-06-24T06:53:57;13.50;;;8.07;;
18685;SDS011;9473;52.342;13.110;2023-06-24T06:56:24;15.93;;;8.27;;
18685;SDS011;9473;52.342;13.110;2023-06-24T06:58:52;14.35;;;8.10;;
18685;SDS011;9473;52.342;13.110;2023-06-24T07:01:19;16.92;;;8.85;;
18685;SDS011;9473;52.342;13.110;2023-06-24T07:03:46;16.70;;;9.48;;
18685;SDS011;9473;52.342;13.110;2023-06-24T07:06:13;15.38;;;8.60;;
18685;SDS011;9473;52.342;13.110;2023-06-24T07:08:40;15.30;;;8.93;;
18685;SDS011;9473;52.342;13.110;2023-06-24T07:11:07;14.60;;;8.57;;
18685;SDS011;9473;52.342;13.110;2023-06-24T07:13:33;13.07;;;8.52;;
18685;SDS011;9473;52.342;13.110;2023-06-24T07:16:02;15.55;;;8.15;;
18685;SDS011;9473;52.342;13.110;2023-06-24T07:18:29;12.93;;;8.05;;
18685;SDS011;9473;52.342;13.110;2023-06-24T07:20:56;13.85;;;8.38;;
18685;SDS011;9473;52.342;13.110;2023-06-24T07:23:23;18.45;;;8.23;;
18685;SDS011;9473;52.342;13.110;2023-06-24T07:25:50;13.93;;;8.25;;
18685;SDS011;9473;52.342;13.110;2023-06-24T07:28:17;12.60;;;8.05;;
18685;SDS011;9473;52.342;13.110;2023-06-24T07:30:44;13.68;;;8.20;;
18685;SDS011;9473;52.342;13.110;2023-06-24T07:33:12;13.57;;;8.13;;
18685;SDS011;9473;52.342;13.110;2023-06-24T07:35:39;12.82;;;7.28;;
18685;SDS011;9473;52.342;13.110;2023-06-24T07:38:06;10.85;;;7.40;;
18685;SDS011;9473;52.342;13.110;2023-06-24T07:40:33;15.65;;;8.13;;
18685;SDS011;9473;52.342;13.110;2023-06-24T07:43:00;13.23;;;6.93;;
18685;SDS011;9473;52.342;13.110;2023-06-24T07:45:27;11.35;;;6.18;;
18685;SDS011;9473;52.342;13.110;2023-06-24T07:47:54;10.48;;;6.93;;
18685;SDS011;9473;52.342;13.110;2023-06-24T07:50:22;11.55;;;6.93;;
18685;SDS011;9473;52.342;13.110;2023-06-24T07:52:49;11.02;;;7.25;;
18685;SDS011;9473;52.342;13.110;2023-06-24T07:55:16;13.35;;;6.75;;
18685;SDS011;9473;52.342;13.110;2023-06-24T07:57:44;12.30;;;6.78;;
18685;SDS011;9473;52.342;13.110;2023-06-24T08:00:12;12.68;;;7.30;;
18685;SDS011;9473;52.342;13.110;2023-06-24T08:02:40;11.55;;;6.90;;
18685;SDS011;9473;52.342;13.110;2023-06-24T08:05:07;12.55;;;6.60;;
18685;SDS011;9473;52.342;13.110;2023-06-24T08:07:36;14.27;;;6.93;;
18685;SDS011;9473;52.342;13.110;2023-06-24T08:10:04;8.63;;;6.25;;
18685;SDS011;9473;52.342;13.110;2023-06-24T08:12:31;18.27;;;6.82;;
18685;SDS011;9473;52.342;13.110;2023-06-24T08:14:58;11.52;;;6.40;;
18685;SDS011;9473;52.342;13.110;2023-06-24T08:17:25;12.27;;;6.07;;
18685;SDS011;9473;52.342;13.110;2023-06-24T08:19:52;8.93;;;6.13;;
18685;SDS011;9473;52.342;13.110;2023-06-24T08:22:18;10.25;;;6.20;;
18685;SDS011;9473;52.342;13.110;2023-06-24T08:24:47;10.80;;;5.82;;
18685;SDS011;9473;52.342;13.110;2023-06-24T08:27:14;9.75;;;6.07;;
18685;SDS011;9473;52.342;13.110;2023-06-24T08:29:41;14.10;;;6.93;;
18685;SDS011;9473;52.342;13.110;2023-06-24T08:32:07;10.40;;;6.25;;
18685;SDS011;9473;52.342;13.110;2023-06-24T08:34:34;11.75;;;5.45;;
18685;SDS011;9473;52.342;13.110;2023-06-24T08:37:01;8.55;;;5.82;;
18685;SDS011;9473;52.342;13.110;2023-06-24T08:39:29;9.10;;;5.82;;
18685;SDS011;9473;52.342;13.110;2023-06-24T08:41:57;10.23;;;5.72;;
18685;SDS011;9473;52.342;13.110;2023-06-24T08:44:24;9.98;;;6.15;;
18685;SDS011;9473;52.342;13.110;2023-06-24T08:46:51;8.77;;;5.85;;
18685;SDS011;9473;52.342;13.110;2023-06-24T08:49:22;8.93;;;5.72;;
18685;SDS011;9473;52.342;13.110;2023-06-24T08:51:53;7.70;;;5.78;;
18685;SDS011;9473;52.342;13.110;2023-06-24T08:54:21;10.57;;;5.43;;
18685;SDS011;9473;52.342;13.110;2023-06-24T08:56:48;8.15;;;5.72;;
18685;SDS011;9473;52.342;13.110;2023-06-24T08:59:17;7.53;;;5.45;;
18685;SDS011;9473;52.342;13.110;2023-06-24T09:01:45;9.80;;;5.60;;
18685;SDS011;9473;52.342;13.110;2023-06-24T09:04:12;18.67;;;8.13;;
18685;SDS011;9473;52.342;13.110;2023-06-24T09:06:39;8.60;;;5.80;;
18685;SDS011;9473;52.342;13.110;2023-06-24T09:09:16;10.27;;;5.38;;
18685;SDS011;9473;52.342;13.110;2023-06-24T09:11:45;11.13;;;5.35;;
18685;SDS011;9473;52.342;13.110;2023-06-24T09:14:18;8.45;;;4.93;;
18685;SDS011;9473;52.342;13.110;2023-06-24T09:16:50;20.40;;;5.50;;
18685;SDS011;9473;52.342;13.110;2023-06-24T09:19:19;85.38;;;10.77;;
18685;SDS011;9473;52.342;13.110;2023-06-24T09:21:46;17.95;;;5.75;;
18685;SDS011;9473;52.342;13.110;2023-06-24T09:24:13;20.80;;;5.78;;
18685;SDS011;9473;52.342;13.110;2023-06-24T09:26:41;7.35;;;5.35;;
18685;SDS011;9473;52.342;13.110;2023-06-24T09:29:09;14.07;;;5.30;;
18685;SDS011;9473;52.342;13.110;2023-06-24T09:31:38;9.30;;;4.43;;
18685;SDS011;9473;52.342;13.110;2023-06-24T09:34:12;6.72;;;4.28;;
18685;SDS011;9473;52.342;13.110;2023-06-24T09:36:41;7.07;;;4.18;;
18685;SDS011;9473;52.342;13.110;2023-06-24T09:39:08;9.30;;;4.35;;
18685;SDS011;9473;52.342;13.110;2023-06-24T09:41:35;5.00;;;4.00;;
18685;SDS011;9473;52.342;13.110;2023-06-24T09:44:02;6.90;;;4.20;;
18685;SDS011;9473;52.342;13.110;2023-06-24T09:46:34;11.25;;;4.88;;
18685;SDS011;9473;52.342;13.110;2023-06-24T09:49:03;7.82;;;4.22;;
18685;SDS011;9473;52.342;13.110;2023-06-24T09:51:31;6.43;;;4.25;;
18685;SDS011;9473;52.342;13.110;2023-06-24T09:53:58;7.25;;;4.20;;
18685;SDS011;9473;52.342;13.110;2023-06-24T09:56:25;6.75;;;3.78;;
18685;SDS011;9473;52.342;13.110;2023-06-24T09:58:53;9.00;;;4.07;;
18685;SDS011;9473;52.342;13.110;2023-06-24T10:01:20;7.78;;;4.10;;
18685;SDS011;9473;52.342;13.110;2023-06-24T10:03:47;10.25;;;4.60;;
18685;SDS011;9473;52.342;13.110;2023-06-24T10:06:16;11.40;;;4.85;;
18685;SDS011;9473;52.342;13.110;2023-06-24T10:08:43;7.97;;;3.70;;
18685;SDS011;9473;52.342;13.110;2023-06-24T10:11:10;6.25;;;3.45;;
18685;SDS011;9473;52.342;13.110;2023-06-24T10:13:37;5.70;;;3.50;;
18685;SDS011;9473;52.342;13.110;2023-06-24T10:16:04;7.25;;;4.00;;
18685;SDS011;9473;52.342;13.110;2023-06-24T10:18:35;6.70;;;4.40;;
18685;SDS011;9473;52.342;13.110;2023-06-24T10:21:02;7.38;;;4.25;;
18685;SDS011;9473;52.342;13.110;2023-06-24T10:23:33;5.95;;;4.40;;
18685;SDS011;9473;52.342;13.110;2023-06-24T10:26:00;6.30;;;4.30;;
18685;SDS011;9473;52.342;13.110;2023-06-24T10:28:27;8.05;;;4.65;;
18685;SDS011;9473;52.342;13.110;2023-06-24T10:31:14;6.70;;;4.47;;
18685;SDS011;9473;52.342;13.110;2023-06-24T10:33:40;9.23;;;4.70;;
18685;SDS011;9473;52.342;13.110;2023-06-24T10:38:56;7.78;;;4.38;;
18685;SDS011;9473;52.342;13.110;2023-06-24T10:41:23;7.60;;;4.53;;
18685;SDS011;9473;52.342;13.110;2023-06-24T10:43:51;5.95;;;4.28;;
18685;SDS011;9473;52.342;13.110;2023-06-24T10:46:24;6.93;;;4.20;;
18685;SDS011;9473;52.342;13.110;2023-06-24T10:48:53;5.90;;;4.07;;
18685;SDS011;9473;52.342;13.110;2023-06-24T10:51:20;7.03;;;4.65;;
18685;SDS011;9473;52.342;13.110;2023-06-24T10:53:47;5.72;;;4.28;;
18685;SDS011;9473;52.342;13.110;2023-06-24T10:56:15;6.55;;;4.45;;
18685;SDS011;9473;52.342;13.110;2023-06-24T10:58:54;6.95;;;4.55;;
18685;SDS011;9473;52.342;13.110;2023-06-24T11:01:21;5.90;;;4.03;;
18685;SDS011;9473;52.342;13.110;2023-06-24T11:03:48;6.03;;;4.10;;
18685;SDS011;9473;52.342;13.110;2023-06-24T11:06:15;5.93;;;3.95;;
18685;SDS011;9473;52.342;13.110;2023-06-24T11:08:45;7.97;;;4.40;;
18685;SDS011;9473;52.342;13.110;2023-06-24T11:11:19;8.10;;;4.75;;
18685;SDS011;9473;52.342;13.110;2023-06-24T11:13:47;5.72;;;3.95;;
18685;SDS011;9473;52.342;13.110;2023-06-24T11:16:19;5.65;;;4.50;;
18685;SDS011;9473;52.342;13.110;2023-06-24T11:18:46;5.57;;;4.03;;
18685;SDS011;9473;52.342;13.110;2023-06-24T11:21:13;5.65;;;4.30;;
18685;SDS011;9473;52.342;13.110;2023-06-24T11:23:40;7.25;;;4.35;;
18685;SDS011;9473;52.342;13.110;2023-06-24T11:26:08;8.30;;;4.35;;
18685;SDS011;9473;52.342;13.110;2023-06-24T11:28:37;7.20;;;4.63;;
18685;SDS011;9473;52.342;13.110;2023-06-24T11:31:06;6.45;;;4.35;;
18685;SDS011;9473;52.342;13.110;2023-06-24T11:33:33;7.20;;;4.72;;
18685;SDS011;9473;52.342;13.110;2023-06-24T11:36:00;10.00;;;4.32;;
18685;SDS011;9473;52.342;13.110;2023-06-24T11:38:27;6.65;;;4.40;;
18685;SDS011;9473;52.342;13.110;2023-06-24T11:40:57;8.45;;;4.15;;
18685;SDS011;9473;52.342;13.110;2023-06-24T11:43:25;6.90;;;4.32;;
18685;SDS011;9473;52.342;13.110;2023-06-24T11:45:53;7.07;;;4.20;;
18685;SDS011;9473;52.342;13.110;2023-06-24T11:48:20;10.77;;;3.90;;
18685;SDS011;9473;52.342;13.110;2023-06-24T11:50:52;7.47;;;3.90;;
18685;SDS011;9473;52.342;13.110;2023-06-24T11:53:22;6.53;;;4.18;;
18685;SDS011;9473;52.342;13.110;2023-06-24T11:55:51;7.53;;;3.50;;
18685;SDS011;9473;52.342;13.110;2023-06-24T11:58:19;5.97;;;4.10;;
18685;SDS011;9473;52.342;13.110;2023-06-24T12:00:46;8.05;;;4.00;;
18685;SDS011;9473;52.342;13.110;2023-06-24T12:03:14;5.30;;;3.72;;
18685;SDS011;9473;52.342;13.110;2023-06-24T12:05:41;5.90;;;3.63;;
18685;SDS011;9473;52.342;13.110;2023-06-24T12:08:10;7.93;;;3.83;;
18685;SDS011;9473;52.342;13.110;2023-06-24T12:10:38;7.10;;;3.28;;
18685;SDS011;9473;52.342;13.110;2023-06-24T12:13:05;6.00;;;3.70;;
18685;SDS011;9473;52.342;13.110;2023-06-24T12:15:33;7.30;;;3.75;;
18685;SDS011;9473;52.342;13.110;2023-06-24T12:18:00;6.43;;;3.53;;
18685;SDS011;9473;52.342;13.110;2023-06-24T12:20:29;7.00;;;3.50;;
18685;SDS011;9473;52.342;13.110;2023-06-24T12:22:56;5.15;;;3.70;;
18685;SDS011;9473;52.342;13.110;2023-06-24T12:25:23;4.32;;;3.40;;
18685;SDS011;9473;52.342;13.110;2023-06-24T12:27:50;6.00;;;3.33;;
18685;SDS011;9473;52.342;13.110;2023-06-24T12:30:17;4.32;;;3.42;;
18685;SDS011;9473;52.342;13.110;2023-06-24T12:32:46;4.43;;;3.20;;
18685;SDS011;9473;52.342;13.110;2023-06-24T12:35:12;6.15;;;3.58;;
18685;SDS011;9473;52.342;13.110;2023-06-24T12:37:41;4.55;;;3.25;;
18685;SDS011;9473;52.342;13.110;2023-06-24T12:40:10;6.00;;;3.40;;
18685;SDS011;9473;52.342;13.110;2023-06-24T12:42:37;5.22;;;3.55;;
18685;SDS011;9473;52.342;13.110;2023-06-24T12:45:04;6.40;;;3.45;;
18685;SDS011;9473;52.342;13.110;2023-06-24T12:47:31;5.80;;;3.72;;
18685;SDS011;9473;52.342;13.110;2023-06-24T12:49:58;8.65;;;3.88;;
18685;SDS011;9473;52.342;13.110;2023-06-24T12:52:25;7.22;;;3.70;;
18685;SDS011;9473;52.342;13.110;2023-06-24T12:54:53;6.00;;;3.70;;
18685;SDS011;9473;52.342;13.110;2023-06-24T12:57:20;8.77;;;3.95;;
18685;SDS011;9473;52.342;13.110;2023-06-24T12:59:47;5.47;;;3.60;;
18685;SDS011;9473;52.342;13.110;2023-06-24T13:02:14;5.47;;;3.60;;
18685;SDS011;9473;52.342;13.110;2023-06-24T13:04:41;6.13;;;3.50;;
18685;SDS011;9473;52.342;13.110;2023-06-24T13:07:08;12.80;;;3.85;;
18685;SDS011;9473;52.342;13.110;2023-06-24T13:09:35;6.45;;;3.67;;
18685;SDS011;9473;52.342;13.110;2023-06-24T13:12:03;7.07;;;3.53;;
18685;SDS011;9473;52.342;13.110;2023-06-24T13:14:30;6.60;;;3.47;;
18685;SDS011;9473;52.342;13.110;2023-06-24T13:16:57;5.85;;;3.58;;
18685;SDS011;9473;52.342;13.110;2023-06-24T13:19:24;7.05;;;3.70;;
18685;SDS011;9473;52.342;13.110;2023-06-24T13:21:51;5.97;;;3.33;;
18685;SDS011;9473;52.342;13.110;2023-06-24T13:24:18;4.45;;;3.40;;
18685;SDS011;9473;52.342;13.110;2023-06-24T13:26:45;4.22;;;3.03;;
18685;SDS011;9473;52.342;13.110;2023-06-24T13:29:13;15.00;;;3.50;;
18685;SDS011;9473;52.342;13.110;2023-06-24T13:31:40;6.57;;;3.30;;
18685;SDS011;9473;52.342;13.110;2023-06-24T13:34:07;6.07;;;3.30;;
18685;SDS011;9473;52.342;13.110;2023-06-24T13:36:34;5.78;;;3.78;;
18685;SDS011;9473;52.342;13.110;2023-06-24T13:39:02;4.35;;;3.20;;
18685;SDS011;9473;52.342;13.110;2023-06-24T13:41:29;7.10;;;3.38;;
18685;SDS011;9473;52.342;13.110;2023-06-24T13:43:57;4.35;;;3.28;;
18685;SDS011;9473;52.342;13.110;2023-06-24T13:46:25;10.93;;;3.60;;
18685;SDS011;9473;52.342;13.110;2023-06-24T13:48:52;10.27;;;3.25;;
18685;SDS011;9473;52.342;13.110;2023-06-24T13:51:19;5.50;;;3.10;;
18685;SDS011;9473;52.342;13.110;2023-06-24T13:53:47;4.72;;;3.05;;
18685;SDS011;9473;52.342;13.110;2023-06-24T13:56:14;4.53;;;3.63;;
18685;SDS011;9473;52.342;13.110;2023-06-24T13:58:41;5.03;;;3.30;;
18685;SDS011;9473;52.342;13.110;2023-06-24T14:01:08;5.50;;;3.65;;
18685;SDS011;9473;52.342;13.110;2023-06-24T14:03:36;4.78;;;3.00;;
18685;SDS011;9473;52.342;13.110;2023-06-24T14:06:03;5.53;;;3.13;;
18685;SDS011;9473;52.342;13.110;2023-06-24T14:08:30;6.18;;;3.10;;
18685;SDS011;9473;52.342;13.110;2023-06-24T14:10:58;4.53;;;3.33;;
18685;SDS011;9473;52.342;13.110;2023-06-24T14:13:25;4.75;;;3.28;;
18685;SDS011;9473;52.342;13.110;2023-06-24T14:15:52;6.00;;;3.30;;
18685;SDS011;9473;52.342;13.110;2023-06-24T14:18:19;5.40;;;3.22;;
18685;SDS011;9473;52.342;13.110;2023-06-24T14:20:47;4.93;;;3.33;;
18685;SDS011;9473;52.342;13.110;2023-06-24T14:23:14;7.40;;;3.83;;
18685;SDS011;9473;52.342;13.110;2023-06-24T14:25:41;7.88;;;3.03;;
18685;SDS011;9473;52.342;13.110;2023-06-24T14:28:08;6.15;;;3.25;;
18685;SDS011;9473;52.342;13.110;2023-06-24T14:30:35;8.18;;;3.53;;
18685;SDS011;9473;52.342;13.110;2023-06-24T14:33:02;6.00;;;3.28;;
18685;SDS011;9473;52.342;13.110;2023-06-24T14:35:29;5.00;;;3.25;;
18685;SDS011;9473;52.342;13.110;2023-06-24T14:37:58;5.35;;;3.47;;
18685;SDS011;9473;52.342;13.110;2023-06-24T14:40:24;12.10;;;3.42;;